Main page
METAR-TAF:

METAR-TAF

Airports :

Ryan Airfield

Tucson, Arizona, United States

latitude: 32-08-32N, longitude: 111-10-28W, elevation: 2417 ft

Current weather observation

The report was made 30 minutes ago, at 00:45 UTC
Wind 16 mph from the West
Temperature 66°F
Humidity 34%
Pressure 29.89 in. Hg
Visibility: 10 miles
Clear sky

METAR: KRYN 040045Z 27014KT 10SM CLR 19/03 A2989

Time: 18:15 (01:15 UTC)


TAF: missing

Weather observations and forecasts of more than 4000 airports (METAR and TAF reports).

The available stations are represented by yellow and red dots on the map.

Hover mouse over dot to see the name of the station.

Then click to see weather observations and forecasts.

To change the map : click on the green buttons with a black cross to zoom in, on the green button with a dash to zoom out, or on the green arrows for adjacent maps.


METAR-TAF: